Time;durP1;ratioP1;P1;durP2;ratioP2;P2;SDS_P1;SDS_P2;PMS_P1;PMS_P2;Temp;Humidity;BMP_temperature;BMP_pressure;BME280_temperature;BME280_humidity;BME280_pressure;Samples;Min_cycle;Max_cycle;Signal;HPM_P1;HPM_P2
2022/09/18 03:02:24;;;;;;;0.22;0.22;;;19.80;45.20;;;;;;5001623;23;45570;-58
2022/09/18 03:04:50;;;;;;;1.80;0.38;;;19.80;45.20;;;;;;4925890;28;44802;-58
2022/09/18 03:07:16;;;;;;;0.65;0.30;;;19.80;45.20;;;;;;4877835;28;45221;-60
2022/09/18 03:09:42;;;;;;;1.40;0.38;;;19.80;45.20;;;;;;4894950;28;45205;-59
2022/09/18 03:12:08;;;;;;;0.85;0.32;;;19.80;45.30;;;;;;4896752;28;45757;-58
2022/09/18 03:14:34;;;;;;;1.10;0.30;;;19.80;45.20;;;;;;4889393;28;45474;-60
2022/09/18 03:17:00;;;;;;;1.13;0.40;;;19.80;45.30;;;;;;4892324;28;46546;-60
2022/09/18 03:19:25;;;;;;;0.88;0.30;;;19.80;45.30;;;;;;4911502;28;45411;-59
2022/09/18 03:21:51;;;;;;;2.60;0.30;;;19.80;45.30;;;;;;4907652;28;44976;-59
2022/09/18 03:24:18;;;;;;;0.68;0.30;;;19.80;45.30;;;;;;4881147;28;45143;-60
2022/09/18 03:26:44;;;;;;;0.38;0.20;;;19.80;45.30;;;;;;4890612;28;45479;-60
2022/09/18 03:29:10;;;;;;;0.75;0.40;;;19.80;45.90;;;;;;4880379;28;44993;-59
2022/09/18 03:31:36;;;;;;;0.85;0.30;;;19.80;45.30;;;;;;4902290;28;44821;-59
2022/09/18 03:34:01;;;;;;;0.80;0.38;;;19.80;45.20;;;;;;4905933;28;45469;-59
2022/09/18 03:36:27;;;;;;;2.63;0.25;;;19.80;45.20;;;;;;4905851;28;46253;-60
2022/09/18 03:38:52;;;;;;;2.40;0.50;;;19.80;45.30;;;;;;4906522;28;45388;-59
2022/09/18 03:41:18;;;;;;;1.20;0.47;;;19.80;45.30;;;;;;4900330;28;45374;-60
2022/09/18 03:43:43;;;;;;;2.58;0.43;;;19.80;45.30;;;;;;4902563;28;44726;-59
2022/09/18 03:46:09;;;;;;;0.60;0.28;;;19.80;45.30;;;;;;4882368;28;46549;-58
2022/09/18 03:48:35;;;;;;;1.55;0.43;;;19.80;45.30;;;;;;4899851;28;45818;-58
2022/09/18 03:51:00;;;;;;;0.82;0.30;;;19.70;45.30;;;;;;4885382;28;45681;-60
2022/09/18 03:53:26;;;;;;;0.82;0.30;;;19.80;45.30;;;;;;4900439;28;45034;-60
2022/09/18 03:55:51;;;;;;;1.02;0.50;;;19.80;45.30;;;;;;4902918;28;46501;-58
2022/09/18 03:58:17;;;;;;;1.58;0.55;;;19.70;45.30;;;;;;4885204;28;45412;-60
2022/09/18 04:00:43;;;;;;;1.70;0.40;;;19.80;45.30;;;;;;4885174;28;45923;-58
2022/09/18 04:03:09;;;;;;;0.70;0.32;;;19.80;45.30;;;;;;4900215;28;45685;-61
2022/09/18 04:05:35;;;;;;;1.75;0.32;;;19.70;45.30;;;;;;4902328;28;45226;-59
2022/09/18 04:08:00;;;;;;;1.15;0.30;;;19.70;45.30;;;;;;4901883;28;45262;-60
2022/09/18 04:10:26;;;;;;;2.63;0.35;;;19.70;45.30;;;;;;4898974;28;44892;-60
2022/09/18 04:12:52;;;;;;;0.70;0.30;;;19.70;45.40;;;;;;4898334;28;45404;-60
2022/09/18 04:15:18;;;;;;;2.55;0.70;;;19.70;45.30;;;;;;4902074;28;45062;-59
2022/09/18 04:17:43;;;;;;;1.42;0.40;;;19.70;45.50;;;;;;4898864;28;45291;-59
2022/09/18 04:20:09;;;;;;;1.52;0.50;;;19.70;46.00;;;;;;4899566;28;45317;-57
2022/09/18 04:22:35;;;;;;;1.80;0.40;;;19.70;45.40;;;;;;4894162;28;45500;-58
2022/09/18 04:25:00;;;;;;;0.40;0.30;;;19.70;45.40;;;;;;4898193;28;46558;-58
2022/09/18 04:27:26;;;;;;;0.73;0.40;;;19.70;45.40;;;;;;4898285;28;45656;-58
2022/09/18 04:29:52;;;;;;;1.30;0.50;;;19.70;45.40;;;;;;4880466;28;45503;-60
2022/09/18 04:32:17;;;;;;;0.75;0.30;;;19.70;45.40;;;;;;4899027;28;45696;-59
2022/09/18 04:34:43;;;;;;;1.88;0.38;;;19.70;45.30;;;;;;4898178;28;45777;-58
2022/09/18 04:37:08;;;;;;;1.13;0.40;;;19.70;45.40;;;;;;4900489;28;45364;-59
2022/09/18 04:39:34;;;;;;;1.08;0.30;;;19.70;45.30;;;;;;4895927;28;45347;-60
2022/09/18 04:42:00;;;;;;;1.13;0.40;;;19.70;45.30;;;;;;4884476;28;45383;-60
2022/09/18 04:44:26;;;;;;;2.35;0.45;;;19.70;45.30;;;;;;4899511;28;46288;-60
2022/09/18 04:46:51;;;;;;;0.75;0.30;;;19.70;45.30;;;;;;4901138;28;45427;-58
2022/09/18 04:49:17;;;;;;;1.20;0.38;;;19.70;45.30;;;;;;4902986;28;45268;-60
2022/09/18 04:51:43;;;;;;;1.58;0.40;;;19.60;45.30;;;;;;4888228;28;45632;-58
2022/09/18 04:54:09;;;;;;;2.95;0.50;;;19.70;45.50;;;;;;4889159;28;45434;-60
2022/09/18 04:56:34;;;;;;;0.75;0.40;;;19.60;45.40;;;;;;4904367;28;45003;-60
2022/09/18 04:59:00;;;;;;;0.95;0.40;;;19.70;45.50;;;;;;4917804;28;45627;-60
2022/09/18 05:01:26;;;;;;;0.40;0.30;;;19.70;45.40;;;;;;4903734;28;45983;-58
2022/09/18 05:03:51;;;;;;;1.73;0.57;;;19.70;45.40;;;;;;4890178;28;45803;-60
2022/09/18 05:06:17;;;;;;;1.23;0.47;;;19.60;45.30;;;;;;4903240;28;45661;-58
2022/09/18 05:08:42;;;;;;;1.90;0.40;;;19.60;45.40;;;;;;4918594;28;46270;-59
2022/09/18 05:11:08;;;;;;;1.55;0.50;;;19.60;45.40;;;;;;4904839;28;45544;-59
2022/09/18 05:13:33;;;;;;;0.30;0.30;;;19.70;45.40;;;;;;4900551;28;47205;-60
2022/09/18 05:15:59;;;;;;;2.53;0.50;;;19.70;45.50;;;;;;4905208;28;45397;-60
2022/09/18 05:18:25;;;;;;;0.70;0.40;;;19.60;45.40;;;;;;4902446;28;45244;-60
2022/09/18 05:20:51;;;;;;;2.63;0.47;;;19.60;45.40;;;;;;4905263;28;46196;-60
2022/09/18 05:23:16;;;;;;;1.15;0.50;;;19.60;45.40;;;;;;4906090;28;46103;-59
2022/09/18 05:25:42;;;;;;;1.10;0.45;;;19.70;45.50;;;;;;4902871;28;44691;-58
2022/09/18 05:28:08;;;;;;;1.10;0.47;;;19.60;45.40;;;;;;4919608;28;46104;-60
2022/09/18 05:30:34;;;;;;;1.80;0.55;;;19.60;45.40;;;;;;4899225;28;45681;-60
2022/09/18 05:33:03;;;;;;;0.75;0.43;;;19.60;45.40;;;;;;4903622;28;45176;-60
2022/09/18 05:35:31;;;;;;;2.33;0.45;;;19.70;45.40;;;;;;4900701;28;45821;-59
2022/09/18 05:37:56;;;;;;;0.82;0.40;;;19.60;45.40;;;;;;4886161;28;45753;-58
2022/09/18 05:40:24;;;;;;;1.38;0.40;;;19.70;45.50;;;;;;4901883;28;45297;-59
2022/09/18 05:42:51;;;;;;;1.02;0.40;;;19.60;45.40;;;;;;4902751;28;46740;-58
2022/09/18 05:45:17;;;;;;;1.25;0.40;;;19.60;45.40;;;;;;4905772;28;45702;-58
2022/09/18 05:47:43;;;;;;;2.47;0.50;;;19.60;45.40;;;;;;4904408;28;45719;-60
2022/09/18 05:50:08;;;;;;;1.00;0.57;;;19.60;45.40;;;;;;4903254;28;45394;-59
2022/09/18 05:52:34;;;;;;;1.58;0.40;;;19.60;45.40;;;;;;4901082;28;45431;-60
2022/09/18 05:55:00;;;;;;;1.33;0.40;;;19.60;45.50;;;;;;4905118;28;44696;-58
2022/09/18 05:57:26;;;;;;;0.55;0.35;;;19.60;45.40;;;;;;4885315;28;45561;-58
2022/09/18 05:59:51;;;;;;;0.82;0.40;;;19.60;45.50;;;;;;4904488;28;46274;-58
2022/09/18 06:02:17;;;;;;;1.27;0.40;;;19.60;45.50;;;;;;4866661;28;47737;-58
2022/09/18 06:04:42;;;;;;;0.70;0.32;;;19.60;45.50;;;;;;4913700;28;45481;-59
2022/09/18 06:07:08;;;;;;;1.10;0.40;;;19.60;45.50;;;;;;4909433;28;45654;-57
2022/09/18 06:09:33;;;;;;;2.17;0.70;;;19.60;45.50;;;;;;4911491;28;45717;-60
2022/09/18 06:11:59;;;;;;;1.40;0.50;;;19.60;45.50;;;;;;4892147;28;45392;-58
2022/09/18 06:14:24;;;;;;;1.05;0.40;;;19.60;45.60;;;;;;4890308;28;45977;-58
2022/09/18 06:16:50;;;;;;;1.90;0.38;;;19.60;45.60;;;;;;4920681;28;45473;-59
2022/09/18 06:19:15;;;;;;;1.38;0.50;;;19.60;45.70;;;;;;4907968;28;45780;-60
2022/09/18 06:21:41;;;;;;;0.95;0.30;;;19.60;45.60;;;;;;4906286;28;45576;-60
2022/09/18 06:24:08;;;;;;;0.65;0.30;;;19.50;45.60;;;;;;4906695;28;45682;-60
2022/09/18 06:26:34;;;;;;;0.90;0.30;;;19.60;45.70;;;;;;4907663;28;44947;-58
2022/09/18 06:28:59;;;;;;;1.73;0.50;;;19.60;45.60;;;;;;4922880;28;45582;-60
2022/09/18 06:31:25;;;;;;;0.88;0.30;;;19.60;45.60;;;;;;4904702;28;46274;-59
2022/09/18 06:33:50;;;;;;;0.80;0.40;;;19.60;45.50;;;;;;4903264;28;45585;-60
2022/09/18 06:36:16;;;;;;;1.65;0.50;;;19.60;45.50;;;;;;4901327;28;45830;-60
2022/09/18 06:38:42;;;;;;;0.82;0.40;;;19.60;45.60;;;;;;4885164;28;45557;-59
2022/09/18 06:41:08;;;;;;;2.70;0.35;;;19.60;45.70;;;;;;4888478;28;46485;-58
2022/09/18 06:43:35;;;;;;;0.73;0.20;;;19.60;45.60;;;;;;4884006;28;45364;-59
2022/09/18 06:46:00;;;;;;;2.03;0.50;;;19.60;45.60;;;;;;4906620;28;45390;-60
2022/09/18 06:48:28;;;;;;;1.35;0.57;;;19.60;45.60;;;;;;4902871;28;45242;-60
2022/09/18 06:50:54;;;;;;;1.77;0.45;;;19.60;45.70;;;;;;4904151;28;45368;-60
2022/09/18 06:53:20;;;;;;;1.48;0.50;;;19.60;45.70;;;;;;4904190;28;44880;-59
2022/09/18 06:55:47;;;;;;;2.38;0.45;;;19.50;45.60;;;;;;4897966;28;45657;-59
2022/09/18 06:58:15;;;;;;;2.25;0.45;;;19.60;45.70;;;;;;4902355;28;45225;-58
2022/09/18 07:00:40;;;;;;;0.88;0.30;;;19.50;45.70;;;;;;4902151;28;45563;-60
2022/09/18 07:03:06;;;;;;;0.55;0.45;;;19.50;45.70;;;;;;4906994;28;45267;-58
2022/09/18 07:05:31;;;;;;;2.22;0.50;;;19.60;45.70;;;;;;4910379;28;46016;-60
2022/09/18 07:07:57;;;;;;;1.58;0.45;;;19.60;45.70;;;;;;4893326;28;45285;-60
2022/09/18 07:10:23;;;;;;;1.58;0.63;;;19.60;45.70;;;;;;4890602;28;46568;-60
2022/09/18 07:12:49;;;;;;;0.98;0.40;;;19.60;45.80;;;;;;4909525;28;45376;-60
2022/09/18 07:15:16;;;;;;;0.50;0.22;;;19.60;45.70;;;;;;4911445;28;45149;-57
2022/09/18 07:17:42;;;;;;;0.77;0.40;;;19.50;45.70;;;;;;4893951;28;45608;-60
2022/09/18 07:20:09;;;;;;;0.70;0.40;;;19.60;45.70;;;;;;4890677;28;45459;-60
2022/09/18 07:22:35;;;;;;;0.80;0.30;;;19.50;45.70;;;;;;4908684;28;45195;-60
2022/09/18 07:25:00;;;;;;;1.63;0.55;;;19.50;46.30;;;;;;4910041;28;45362;-60
2022/09/18 07:27:27;;;;;;;0.68;0.40;;;19.50;45.70;;;;;;4909842;28;45648;-60
2022/09/18 07:29:53;;;;;;;1.27;0.60;;;19.50;45.80;;;;;;4892036;28;45441;-60
2022/09/18 07:32:21;;;;;;;0.40;0.40;;;19.50;45.80;;;;;;4907333;28;45501;-58
2022/09/18 07:34:47;;;;;;;0.93;0.40;;;19.50;45.80;;;;;;4906644;28;45544;-59
2022/09/18 07:37:12;;;;;;;1.15;0.32;;;19.50;45.80;;;;;;4862577;28;46105;-59
2022/09/18 07:39:38;;;;;;;1.58;0.40;;;19.50;45.80;;;;;;4891067;28;45705;-60
2022/09/18 07:42:04;;;;;;;0.50;0.30;;;19.50;45.80;;;;;;4891462;28;45903;-60
2022/09/18 07:44:30;;;;;;;0.73;0.32;;;19.50;45.80;;;;;;4909272;28;45558;-60
2022/09/18 07:46:56;;;;;;;1.40;0.50;;;19.50;45.80;;;;;;4910076;28;45016;-60
2022/09/18 07:49:21;;;;;;;0.73;0.20;;;19.50;45.80;;;;;;4906447;28;45652;-60
2022/09/18 07:51:47;;;;;;;1.67;0.50;;;19.50;45.90;;;;;;4902844;28;45352;-60
2022/09/18 07:54:13;;;;;;;0.30;0.30;;;19.50;45.90;;;;;;4907805;28;45237;-59
2022/09/18 07:56:38;;;;;;;1.27;0.40;;;19.50;45.90;;;;;;4890168;28;45364;-58
2022/09/18 07:59:04;;;;;;;0.90;0.40;;;19.50;45.90;;;;;;4909109;28;46300;-59
2022/09/18 08:01:29;;;;;;;1.77;0.75;;;19.50;45.90;;;;;;4902194;28;45268;-60
2022/09/18 08:03:55;;;;;;;1.13;0.32;;;19.50;45.90;;;;;;4888622;28;44837;-60
2022/09/18 08:06:20;;;;;;;0.68;0.30;;;19.50;46.00;;;;;;4889124;28;45777;-59
2022/09/18 08:08:46;;;;;;;2.10;0.50;;;19.50;46.00;;;;;;4888043;28;46811;-60
2022/09/18 08:11:12;;;;;;;1.52;0.35;;;19.50;45.90;;;;;;4906890;28;45394;-58
2022/09/18 08:13:37;;;;;;;0.30;0.30;;;19.50;45.90;;;;;;4909519;28;45535;-58
2022/09/18 08:16:03;;;;;;;0.75;0.30;;;19.50;45.90;;;;;;4908306;28;46464;-58
2022/09/18 08:18:28;;;;;;;0.40;0.28;;;19.50;45.90;;;;;;4891178;28;46901;-60
2022/09/18 08:20:55;;;;;;;1.23;0.20;;;19.50;45.90;;;;;;4906101;28;45685;-60
2022/09/18 08:23:21;;;;;;;1.20;0.40;;;19.50;46.00;;;;;;4890591;28;46973;-59
2022/09/18 08:25:46;;;;;;;1.13;0.50;;;19.50;46.00;;;;;;4889077;28;45349;-60
2022/09/18 08:28:12;;;;;;;1.73;0.43;;;19.50;46.00;;;;;;4873862;28;46847;-60
2022/09/18 08:30:38;;;;;;;1.00;0.40;;;19.50;46.00;;;;;;4905279;28;45563;-59
2022/09/18 08:33:05;;;;;;;1.08;0.30;;;19.50;46.10;;;;;;4890037;28;46184;-58
2022/09/18 08:35:30;;;;;;;1.08;0.40;;;19.40;46.00;;;;;;4890625;28;45695;-60
2022/09/18 08:37:57;;;;;;;0.40;0.32;;;19.50;46.10;;;;;;4872045;28;45847;-60
2022/09/18 08:40:37;;;;;;;1.80;0.45;;;19.50;46.00;;;;;;4886899;28;45475;-60
2022/09/18 08:43:12;;;;;;;0.95;0.30;;;19.50;46.60;;;;;;4876754;28;45718;-59
2022/09/18 08:46:06;;;;;;;0.35;0.30;;;19.50;46.10;;;;;;4874899;28;44960;-57
2022/09/18 08:48:37;;;;;;;1.05;0.50;;;19.50;46.10;;;;;;4871761;28;45376;-60
2022/09/18 08:51:25;;;;;;;0.38;0.30;;;19.50;46.10;;;;;;4889580;28;45638;-59
2022/09/18 08:53:53;;;;;;;0.73;0.50;;;19.50;46.10;;;;;;4875131;28;45408;-60
2022/09/18 08:56:21;;;;;;;0.95;0.40;;;19.50;46.10;;;;;;4880463;28;46131;-60
2022/09/18 08:58:57;;;;;;;0.28;0.22;;;19.50;46.00;;;;;;4861010;28;46220;-61
2022/09/18 09:01:49;;;;;;;0.93;0.43;;;19.50;46.10;;;;;;4847902;28;45350;-59
2022/09/18 09:04:18;;;;;;;1.85;0.40;;;19.50;46.10;;;;;;4885226;28;45303;-60
2022/09/18 09:07:14;;;;;;;1.23;0.47;;;19.50;46.10;;;;;;4853636;28;45578;-59
2022/09/18 09:09:43;;;;;;;0.68;0.45;;;19.50;46.00;;;;;;4885677;28;45374;-60
2022/09/18 09:12:42;;;;;;;1.00;0.38;;;19.50;46.00;;;;;;4870180;28;45625;-58
2022/09/18 09:15:17;;;;;;;0.43;0.38;;;19.50;46.10;;;;;;4882928;28;45233;-58
2022/09/18 09:18:26;;;;;;;0.95;0.40;;;19.50;46.10;;;;;;4881415;28;45408;-60
2022/09/18 09:20:53;;;;;;;0.75;0.25;;;19.50;46.10;;;;;;4805632;29;46547;-58
2022/09/18 09:23:36;;;;;;;0.50;0.30;;;19.50;46.10;;;;;;4801814;29;46315;-60
2022/09/18 09:26:04;;;;;;;0.55;0.20;;;19.50;46.10;;;;;;4836108;28;44783;-58
2022/09/18 09:28:48;;;;;;;0.65;0.40;;;19.50;46.10;;;;;;4868374;28;45559;-60
2022/09/18 09:31:14;;;;;;;0.85;0.40;;;19.50;46.20;;;;;;4856887;28;46218;-59
2022/09/18 09:33:43;;;;;;;0.93;0.32;;;19.50;46.20;;;;;;4868794;28;45370;-57
2022/09/18 09:36:13;;;;;;;1.65;0.40;;;19.50;46.20;;;;;;4871007;28;45385;-60
2022/09/18 09:38:56;;;;;;;0.57;0.20;;;19.50;46.20;;;;;;4887776;28;45146;-60
2022/09/18 09:41:43;;;;;;;0.75;0.43;;;19.50;46.10;;;;;;4889922;28;48877;-58
2022/09/18 09:44:43;;;;;;;1.00;0.35;;;19.50;46.30;;;;;;4892685;28;45712;-60
2022/09/18 09:47:12;;;;;;;0.95;0.40;;;19.50;46.30;;;;;;4893572;28;45604;-60
2022/09/18 09:50:02;;;;;;;0.88;0.40;;;19.50;46.20;;;;;;4893283;28;45334;-58
2022/09/18 09:52:28;;;;;;;2.03;0.40;;;19.60;46.30;;;;;;4888302;28;45540;-60
2022/09/18 09:55:06;;;;;;;1.40;0.40;;;19.50;46.20;;;;;;4870867;28;45960;-59
2022/09/18 09:57:53;;;;;;;1.05;0.40;;;19.50;46.20;;;;;;4887721;28;45285;-60
2022/09/18 10:00:19;;;;;;;0.80;0.32;;;19.60;46.30;;;;;;4888261;28;45626;-60
2022/09/18 10:03:06;;;;;;;1.30;0.40;;;19.60;46.30;;;;;;4893728;28;45603;-60
2022/09/18 10:05:49;;;;;;;0.95;0.40;;;19.60;46.30;;;;;;4890650;28;45567;-59
2022/09/18 10:08:22;;;;;;;0.73;0.30;;;19.60;46.30;;;;;;4876295;28;44975;-61
2022/09/18 10:10:52;;;;;;;1.13;0.52;;;19.60;46.30;;;;;;4886624;28;45494;-60
2022/09/18 10:13:20;;;;;;;0.40;0.30;;;19.60;46.30;;;;;;4877322;28;47119;-60
2022/09/18 10:15:47;;;;;;;0.65;0.40;;;19.60;46.30;;;;;;4891564;28;45194;-61
2022/09/18 10:18:24;;;;;;;0.80;0.40;;;19.60;46.30;;;;;;4891572;28;45563;-60
2022/09/18 10:20:55;;;;;;;1.85;0.43;;;19.60;46.40;;;;;;4880010;28;45552;-59
2022/09/18 10:23:28;;;;;;;1.20;0.45;;;19.60;46.40;;;;;;4890733;28;47239;-60
2022/09/18 10:25:58;;;;;;;0.85;0.38;;;19.60;46.40;;;;;;4876965;28;44729;-59
2022/09/18 10:28:28;;;;;;;1.20;0.40;;;19.60;46.40;;;;;;4891691;28;45269;-59
2022/09/18 10:31:00;;;;;;;0.75;0.45;;;19.50;46.40;;;;;;4912333;28;44758;-59
2022/09/18 10:33:29;;;;;;;1.52;0.77;;;19.60;46.40;;;;;;4890610;28;46952;-60
2022/09/18 10:35:55;;;;;;;1.48;0.80;;;19.60;46.40;;;;;;4875304;28;45201;-61
2022/09/18 10:38:28;;;;;;;1.85;0.50;;;19.60;46.40;;;;;;4891494;28;45190;-61
2022/09/18 10:40:54;;;;;;;1.05;0.52;;;19.60;46.40;;;;;;4910397;28;45201;-58
2022/09/18 10:43:19;;;;;;;1.10;0.40;;;19.60;46.40;;;;;;4891360;28;46543;-61
2022/09/18 10:45:53;;;;;;;1.27;0.50;;;19.60;46.40;;;;;;4906915;28;46270;-60
2022/09/18 10:48:23;;;;;;;0.80;0.55;;;19.60;46.50;;;;;;4893106;28;44739;-59
2022/09/18 10:50:53;;;;;;;0.95;0.57;;;19.60;46.40;;;;;;4874231;28;45311;-61
2022/09/18 10:53:28;;;;;;;0.73;0.50;;;19.60;46.50;;;;;;4890079;28;46275;-61
2022/09/18 10:55:54;;;;;;;0.52;0.50;;;19.60;46.40;;;;;;4909016;28;45333;-60
2022/09/18 10:58:25;;;;;;;1.50;0.57;;;19.60;46.40;;;;;;4910396;28;45622;-61
2022/09/18 11:01:02;;;;;;;1.52;0.40;;;19.60;46.40;;;;;;4891945;28;45358;-59
2022/09/18 11:03:48;;;;;;;1.63;0.60;;;19.60;46.50;;;;;;4873372;28;45343;-60
2022/09/18 11:06:24;;;;;;;1.25;0.60;;;19.60;46.50;;;;;;4909575;28;45094;-61
2022/09/18 11:08:57;;;;;;;0.98;0.50;;;19.60;46.50;;;;;;4908925;28;46287;-60
2022/09/18 11:11:30;;;;;;;1.23;0.57;;;19.60;46.40;;;;;;4891121;28;44907;-58
2022/09/18 11:14:04;;;;;;;1.13;0.40;;;19.60;46.50;;;;;;4892464;28;45481;-60
2022/09/18 11:16:44;;;;;;;1.52;0.50;;;19.60;46.50;;;;;;4891773;28;44765;-60
2022/09/18 11:19:10;;;;;;;1.42;0.50;;;19.60;46.60;;;;;;4889875;28;46130;-57
2022/09/18 11:21:49;;;;;;;1.23;0.63;;;19.60;46.50;;;;;;4907203;28;45387;-61
2022/09/18 11:24:24;;;;;;;1.02;0.55;;;19.60;46.60;;;;;;4906645;28;45628;-61
2022/09/18 11:26:55;;;;;;;0.68;0.47;;;19.60;46.60;;;;;;4905439;28;45319;-61
2022/09/18 11:29:29;;;;;;;1.02;0.50;;;19.60;46.60;;;;;;4909413;28;45414;-61
2022/09/18 11:31:56;;;;;;;1.55;0.65;;;19.60;46.60;;;;;;4906514;28;45723;-60
2022/09/18 11:34:24;;;;;;;0.60;0.40;;;19.60;46.60;;;;;;4906404;28;45842;-61
2022/09/18 11:36:52;;;;;;;1.05;0.57;;;19.60;46.60;;;;;;4905815;28;45525;-60
2022/09/18 11:39:24;;;;;;;1.67;0.55;;;19.60;46.60;;;;;;4910883;28;45406;-60
2022/09/18 11:41:49;;;;;;;1.08;0.45;;;19.60;46.60;;;;;;4888506;28;45707;-61
2022/09/18 11:44:24;;;;;;;1.23;0.57;;;19.60;46.60;;;;;;4924376;28;45478;-59
2022/09/18 11:47:22;;;;;;;0.70;0.50;;;19.60;46.70;;;;;;4909084;28;46088;-61
2022/09/18 11:49:50;;;;;;;1.17;0.57;;;19.60;46.70;;;;;;4911173;28;45357;-59
2022/09/18 11:52:19;;;;;;;1.35;0.63;;;19.60;46.70;;;;;;4910424;28;45455;-60
2022/09/18 11:54:54;;;;;;;1.02;0.52;;;19.60;46.70;;;;;;4909010;28;47106;-60
2022/09/18 11:57:28;;;;;;;0.55;0.40;;;19.60;46.70;;;;;;4910768;28;45190;-60
2022/09/18 11:59:57;;;;;;;1.77;0.45;;;19.60;46.70;;;;;;4910708;28;44795;-59
2022/09/18 12:02:35;;;;;;;2.30;0.70;;;19.60;46.80;;;;;;4890384;28;45368;-61
2022/09/18 12:05:22;;;;;;;1.05;0.57;;;19.60;46.80;;;;;;4891894;28;47523;-60
2022/09/18 12:07:54;;;;;;;1.02;0.43;;;19.60;46.80;;;;;;4912078;28;45395;-61
2022/09/18 12:10:45;;;;;;;1.10;0.40;;;19.60;46.80;;;;;;4910279;28;45369;-61
2022/09/18 12:13:22;;;;;;;0.90;0.50;;;19.60;47.40;;;;;;4916426;28;45356;-61
2022/09/18 12:16:14;;;;;;;0.73;0.50;;;19.60;46.80;;;;;;4912869;28;45575;-60
2022/09/18 12:18:48;;;;;;;1.08;0.70;;;19.60;46.80;;;;;;4906275;28;45140;-60
2022/09/18 12:21:16;;;;;;;2.00;0.70;;;19.60;46.80;;;;;;4908606;28;44817;-61
2022/09/18 12:23:41;;;;;;;0.68;0.40;;;19.60;46.70;;;;;;4911288;28;45348;-60
2022/09/18 12:26:47;;;;;;;1.10;0.50;;;19.60;46.70;;;;;;4895029;28;45419;-61
2022/09/18 12:29:24;;;;;;;2.22;0.60;;;19.60;46.80;;;;;;4901521;28;45249;-61
2022/09/18 12:31:56;;;;;;;0.80;0.50;;;19.60;46.80;;;;;;4911520;28;45493;-60
2022/09/18 12:34:40;;;;;;;2.55;0.60;;;19.60;46.80;;;;;;4911466;28;45248;-62
2022/09/18 12:37:27;;;;;;;1.45;0.60;;;19.60;46.80;;;;;;4909085;28;46725;-61
2022/09/18 12:40:12;;;;;;;0.77;0.68;;;19.60;46.80;;;;;;4906669;28;45255;-61
2022/09/18 12:43:03;;;;;;;2.83;0.52;;;19.60;46.80;;;;;;4909002;28;44906;-60
2022/09/18 12:45:43;;;;;;;2.03;0.40;;;19.60;46.80;;;;;;4909248;28;44697;-59
2022/09/18 12:48:30;;;;;;;1.58;0.65;;;19.60;46.80;;;;;;4914449;28;46520;-59
2022/09/18 12:51:16;;;;;;;1.70;0.43;;;19.60;46.80;;;;;;4910133;28;45310;-60
2022/09/18 12:53:47;;;;;;;0.63;0.50;;;19.60;46.80;;;;;;4903173;28;46045;-60
2022/09/18 12:56:26;;;;;;;1.50;0.60;;;19.60;46.80;;;;;;4909500;28;45897;-61
2022/09/18 12:59:01;;;;;;;0.50;0.30;;;19.60;46.90;;;;;;4909405;28;45517;-60
2022/09/18 13:01:36;;;;;;;0.80;0.50;;;19.60;46.90;;;;;;4905057;28;45236;-61
2022/09/18 13:04:29;;;;;;;0.75;0.40;;;19.60;46.80;;;;;;4908632;28;45839;-60
2022/09/18 13:07:11;;;;;;;1.95;0.45;;;19.60;46.90;;;;;;4907569;28;46665;-60
2022/09/18 13:09:52;;;;;;;1.52;0.60;;;19.60;46.90;;;;;;4913360;28;45362;-61
2022/09/18 13:12:32;;;;;;;0.77;0.30;;;19.60;46.90;;;;;;4885625;28;45432;-61
2022/09/18 13:15:06;;;;;;;0.70;0.50;;;19.60;46.80;;;;;;4913559;28;44746;-61
2022/09/18 13:17:37;;;;;;;0.65;0.30;;;19.60;46.80;;;;;;4893954;28;45306;-61
2022/09/18 13:20:19;;;;;;;1.50;0.52;;;19.60;46.80;;;;;;4894613;28;45523;-60
2022/09/18 13:22:45;;;;;;;1.17;0.60;;;19.60;46.90;;;;;;4894899;28;45459;-60
2022/09/18 13:25:27;;;;;;;0.73;0.40;;;19.60;46.90;;;;;;4891114;28;45532;-61
2022/09/18 13:27:53;;;;;;;0.63;0.38;;;19.60;46.90;;;;;;4915768;28;44985;-61
2022/09/18 13:30:29;;;;;;;2.20;0.40;;;19.60;46.90;;;;;;4896274;28;46663;-60
2022/09/18 13:32:56;;;;;;;1.05;0.55;;;19.60;46.90;;;;;;4911958;28;45450;-61
2022/09/18 13:35:28;;;;;;;0.63;0.38;;;19.60;46.90;;;;;;4895365;28;45938;-60
2022/09/18 13:38:07;;;;;;;1.85;0.55;;;19.60;47.00;;;;;;4912174;28;45118;-60
2022/09/18 13:40:37;;;;;;;1.55;0.50;;;19.60;47.00;;;;;;4909783;28;46303;-61
2022/09/18 13:43:39;;;;;;;2.45;0.40;;;19.60;46.90;;;;;;4894042;28;45930;-60
2022/09/18 13:46:04;;;;;;;1.98;0.60;;;19.60;47.10;;;;;;4895998;28;45511;-61
2022/09/18 13:48:32;;;;;;;0.85;0.45;;;19.60;46.90;;;;;;4893361;28;45379;-61
2022/09/18 13:51:26;;;;;;;1.38;0.50;;;19.60;47.00;;;;;;4907483;28;45450;-60
2022/09/18 13:54:10;;;;;;;1.00;0.52;;;19.60;47.00;;;;;;4892852;28;45627;-59
2022/09/18 13:57:08;;;;;;;1.17;0.30;;;19.60;47.10;;;;;;4911202;28;44942;-60
2022/09/18 13:59:50;;;;;;;1.40;0.30;;;19.60;47.10;;;;;;4916599;28;46162;-60
2022/09/18 14:02:29;;;;;;;1.35;0.38;;;19.60;47.10;;;;;;4894746;28;46327;-60
2022/09/18 14:05:02;;;;;;;0.55;0.40;;;19.60;47.10;;;;;;4916464;28;44635;-60
2022/09/18 14:07:30;;;;;;;1.17;0.50;;;19.60;47.00;;;;;;4891224;28;45224;-60
2022/09/18 14:09:57;;;;;;;1.10;0.45;;;19.60;47.00;;;;;;4913159;28;46437;-61
2022/09/18 14:12:23;;;;;;;1.10;0.35;;;19.60;47.00;;;;;;4926715;28;45338;-61
2022/09/18 14:15:03;;;;;;;2.42;0.60;;;19.60;47.10;;;;;;4909442;28;45413;-61
2022/09/18 14:17:30;;;;;;;1.00;0.60;;;19.60;47.10;;;;;;4896717;28;45985;-61
2022/09/18 14:20:32;;;;;;;2.05;0.50;;;19.60;47.00;;;;;;4909506;28;44893;-61
2022/09/18 14:23:44;;;;;;;1.20;0.50;;;19.60;47.00;;;;;;4838059;29;45431;-61
2022/09/18 14:26:28;;;;;;;1.20;0.40;;;19.60;47.10;;;;;;4913358;28;45691;-61
2022/09/18 14:29:14;;;;;;;1.17;0.50;;;19.60;47.10;;;;;;4929278;28;47866;-61
2022/09/18 14:31:50;;;;;;;0.77;0.40;;;19.60;47.10;;;;;;4894987;28;44751;-61
2022/09/18 14:34:41;;;;;;;2.90;0.55;;;19.60;47.10;;;;;;4909702;28;45612;-59
2022/09/18 14:37:27;;;;;;;1.33;0.40;;;19.60;47.10;;;;;;4913495;28;45573;-59
2022/09/18 14:39:54;;;;;;;1.20;0.47;;;19.60;47.10;;;;;;4911354;28;44794;-61
2022/09/18 14:42:26;;;;;;;0.52;0.40;;;19.60;47.10;;;;;;4908906;28;45138;-61
2022/09/18 14:45:13;;;;;;;1.40;0.40;;;19.60;47.00;;;;;;4911294;28;45897;-61
2022/09/18 14:47:40;;;;;;;1.48;0.50;;;19.60;47.00;;;;;;4884228;28;44930;-59
2022/09/18 14:50:29;;;;;;;1.80;0.50;;;19.60;47.00;;;;;;4885802;28;45303;-61
2022/09/18 14:52:56;;;;;;;0.40;0.30;;;19.60;47.10;;;;;;4909999;28;45050;-60
2022/09/18 14:55:35;;;;;;;1.25;0.52;;;19.60;47.10;;;;;;4888496;28;45373;-58
2022/09/18 14:58:04;;;;;;;0.75;0.50;;;19.60;47.10;;;;;;4890034;28;45353;-60
2022/09/18 15:00:31;;;;;;;1.05;0.55;;;19.60;47.20;;;;;;4887634;28;45439;-61
2022/09/18 15:02:59;;;;;;;0.85;0.40;;;19.50;47.20;;;;;;4879442;28;45255;-61
2022/09/18 15:05:25;;;;;;;0.52;0.43;;;19.50;47.20;;;;;;4893111;28;46179;-59
2022/09/18 15:08:04;;;;;;;0.65;0.40;;;19.50;47.20;;;;;;4891284;28;45372;-61
2022/09/18 15:10:34;;;;;;;1.63;0.40;;;19.50;47.20;;;;;;4858203;28;45536;-59
2022/09/18 15:13:01;;;;;;;2.63;0.43;;;19.50;47.20;;;;;;4874041;28;45554;-61
2022/09/18 15:15:37;;;;;;;1.40;0.50;;;19.50;47.20;;;;;;4911197;28;45134;-60
2022/09/18 15:18:02;;;;;;;0.93;0.50;;;19.50;47.30;;;;;;4874449;28;47028;-60
2022/09/18 15:20:29;;;;;;;1.40;0.52;;;19.50;47.20;;;;;;4894599;28;45423;-59
2022/09/18 15:22:55;;;;;;;1.02;0.40;;;19.50;47.20;;;;;;4908372;28;45774;-60
2022/09/18 15:25:39;;;;;;;1.23;0.55;;;19.50;47.20;;;;;;4907449;28;45752;-60
2022/09/18 15:28:04;;;;;;;;;;;19.50;47.30;;;;;;4895668;28;45290;-60
2022/09/18 15:30:30;;;;;;;0.70;0.40;;;19.50;47.50;;;;;;4889459;28;46310;-58
2022/09/18 15:33:06;;;;;;;1.23;0.50;;;19.50;47.40;;;;;;4891866;28;45543;-60
2022/09/18 15:35:34;;;;;;;1.00;0.32;;;19.50;47.30;;;;;;4912196;28;46465;-60
2022/09/18 15:38:07;;;;;;;1.02;0.60;;;19.50;47.30;;;;;;4876814;28;45303;-60
2022/09/18 15:40:36;;;;;;;;;;;19.50;47.30;;;;;;4874768;28;45124;-61
2022/09/18 15:43:04;;;;;;;1.15;0.40;;;19.50;47.50;;;;;;4912270;28;45786;-59
2022/09/18 15:45:31;;;;;;;1.40;0.57;;;19.50;47.40;;;;;;4892301;28;46886;-60
2022/09/18 15:47:57;;;;;;;0.80;0.50;;;19.50;47.30;;;;;;4895359;28;45254;-61
2022/09/18 15:50:37;;;;;;;0.82;0.50;;;19.50;47.30;;;;;;4913583;28;45440;-60
2022/09/18 15:53:14;;;;;;;0.65;0.40;;;19.50;47.50;;;;;;4893871;28;45210;-59
2022/09/18 15:55:54;;;;;;;2.03;0.50;;;19.40;47.40;;;;;;4896735;28;45906;-60
2022/09/18 15:58:41;;;;;;;1.42;0.50;;;19.50;47.50;;;;;;4876620;28;45873;-61
2022/09/18 16:01:14;;;;;;;0.45;0.40;;;19.40;47.50;;;;;;4880312;28;45381;-60
2022/09/18 16:03:40;;;;;;;0.52;0.40;;;19.40;47.40;;;;;;4901290;28;45555;-60
2022/09/18 16:06:07;;;;;;;0.85;0.38;;;19.40;48.00;;;;;;4907990;28;46053;-58
2022/09/18 16:08:36;;;;;;;1.38;0.57;;;19.40;47.40;;;;;;4893450;28;45435;-60
2022/09/18 16:11:02;;;;;;;1.50;0.63;;;19.50;47.50;;;;;;4907531;28;45607;-60